sensor_id;sensor_type;location;lat;lon;timestamp;P1;durP1;ratioP1;P2;durP2;ratioP2
9716;SDS011;4897;43.570;27.832;2023-02-22T00:01:08;7.75;;;3.90;;
9716;SDS011;4897;43.570;27.832;2023-02-22T00:03:46;7.88;;;3.83;;
9716;SDS011;4897;43.570;27.832;2023-02-22T00:06:17;8.25;;;4.45;;
9716;SDS011;4897;43.570;27.832;2023-02-22T00:08:46;7.32;;;4.05;;
9716;SDS011;4897;43.570;27.832;2023-02-22T00:11:14;8.15;;;4.22;;
9716;SDS011;4897;43.570;27.832;2023-02-22T00:13:41;8.00;;;4.43;;
9716;SDS011;4897;43.570;27.832;2023-02-22T00:16:12;7.40;;;4.20;;
9716;SDS011;4897;43.570;27.832;2023-02-22T00:18:40;6.28;;;3.45;;
9716;SDS011;4897;43.570;27.832;2023-02-22T00:21:08;5.90;;;3.47;;
9716;SDS011;4897;43.570;27.832;2023-02-22T00:23:40;6.00;;;3.50;;
9716;SDS011;4897;43.570;27.832;2023-02-22T00:26:11;5.93;;;3.47;;
9716;SDS011;4897;43.570;27.832;2023-02-22T00:28:42;8.77;;;4.63;;
9716;SDS011;4897;43.570;27.832;2023-02-22T00:31:09;7.53;;;4.10;;
9716;SDS011;4897;43.570;27.832;2023-02-22T00:33:37;7.25;;;4.47;;
9716;SDS011;4897;43.570;27.832;2023-02-22T00:36:05;7.10;;;3.88;;
9716;SDS011;4897;43.570;27.832;2023-02-22T00:38:32;7.13;;;4.20;;
9716;SDS011;4897;43.570;27.832;2023-02-22T00:41:01;10.50;;;4.25;;
9716;SDS011;4897;43.570;27.832;2023-02-22T00:43:27;6.70;;;3.67;;
9716;SDS011;4897;43.570;27.832;2023-02-22T00:45:54;7.32;;;3.42;;
9716;SDS011;4897;43.570;27.832;2023-02-22T00:48:22;8.65;;;4.22;;
9716;SDS011;4897;43.570;27.832;2023-02-22T00:50:48;7.32;;;4.15;;
9716;SDS011;4897;43.570;27.832;2023-02-22T00:53:19;12.60;;;4.80;;
9716;SDS011;4897;43.570;27.832;2023-02-22T00:55:47;9.10;;;4.80;;
9716;SDS011;4897;43.570;27.832;2023-02-22T00:58:16;10.35;;;5.35;;
9716;SDS011;4897;43.570;27.832;2023-02-22T01:00:43;8.95;;;5.20;;
9716;SDS011;4897;43.570;27.832;2023-02-22T01:03:12;13.75;;;4.55;;
9716;SDS011;4897;43.570;27.832;2023-02-22T01:05:40;7.10;;;4.70;;
9716;SDS011;4897;43.570;27.832;2023-02-22T01:08:08;10.35;;;5.50;;
9716;SDS011;4897;43.570;27.832;2023-02-22T01:10:36;12.18;;;6.55;;
9716;SDS011;4897;43.570;27.832;2023-02-22T01:13:04;11.57;;;6.47;;
9716;SDS011;4897;43.570;27.832;2023-02-22T01:15:34;14.57;;;7.20;;
9716;SDS011;4897;43.570;27.832;2023-02-22T01:18:03;14.25;;;6.78;;
9716;SDS011;4897;43.570;27.832;2023-02-22T01:20:30;8.95;;;5.85;;
9716;SDS011;4897;43.570;27.832;2023-02-22T01:22:58;10.85;;;6.30;;
9716;SDS011;4897;43.570;27.832;2023-02-22T01:25:28;11.70;;;6.03;;
9716;SDS011;4897;43.570;27.832;2023-02-22T01:27:56;7.55;;;5.47;;
9716;SDS011;4897;43.570;27.832;2023-02-22T01:30:25;12.02;;;6.93;;
9716;SDS011;4897;43.570;27.832;2023-02-22T01:32:55;9.23;;;5.60;;
9716;SDS011;4897;43.570;27.832;2023-02-22T01:35:23;9.00;;;5.35;;
9716;SDS011;4897;43.570;27.832;2023-02-22T01:37:52;10.13;;;5.90;;
9716;SDS011;4897;43.570;27.832;2023-02-22T01:40:20;12.43;;;5.88;;
9716;SDS011;4897;43.570;27.832;2023-02-22T01:42:50;15.73;;;6.30;;
9716;SDS011;4897;43.570;27.832;2023-02-22T01:48:23;9.48;;;6.05;;
9716;SDS011;4897;43.570;27.832;2023-02-22T01:50:56;17.35;;;6.47;;
9716;SDS011;4897;43.570;27.832;2023-02-22T01:53:25;11.80;;;6.38;;
9716;SDS011;4897;43.570;27.832;2023-02-22T01:55:57;9.13;;;4.95;;
9716;SDS011;4897;43.570;27.832;2023-02-22T01:58:25;10.48;;;5.93;;
9716;SDS011;4897;43.570;27.832;2023-02-22T02:00:55;12.30;;;6.00;;
9716;SDS011;4897;43.570;27.832;2023-02-22T02:03:25;10.75;;;6.05;;
9716;SDS011;4897;43.570;27.832;2023-02-22T02:05:57;15.95;;;8.20;;
9716;SDS011;4897;43.570;27.832;2023-02-22T02:08:30;10.65;;;6.50;;
9716;SDS011;4897;43.570;27.832;2023-02-22T02:11:02;6.60;;;4.40;;
9716;SDS011;4897;43.570;27.832;2023-02-22T02:13:30;9.00;;;4.57;;
9716;SDS011;4897;43.570;27.832;2023-02-22T02:15:57;7.53;;;4.50;;
9716;SDS011;4897;43.570;27.832;2023-02-22T02:18:26;7.38;;;4.10;;
9716;SDS011;4897;43.570;27.832;2023-02-22T02:27:04;6.18;;;3.47;;
9716;SDS011;4897;43.570;27.832;2023-02-22T02:29:46;8.27;;;3.75;;
9716;SDS011;4897;43.570;27.832;2023-02-22T02:32:39;6.68;;;3.83;;
9716;SDS011;4897;43.570;27.832;2023-02-22T02:35:16;6.93;;;4.25;;
9716;SDS011;4897;43.570;27.832;2023-02-22T02:37:50;7.63;;;4.15;;
9716;SDS011;4897;43.570;27.832;2023-02-22T02:40:25;6.13;;;3.97;;
9716;SDS011;4897;43.570;27.832;2023-02-22T02:43:01;7.88;;;4.05;;
9716;SDS011;4897;43.570;27.832;2023-02-22T02:45:34;7.18;;;4.10;;
9716;SDS011;4897;43.570;27.832;2023-02-22T02:48:11;8.55;;;4.40;;
9716;SDS011;4897;43.570;27.832;2023-02-22T02:50:40;8.90;;;5.20;;
9716;SDS011;4897;43.570;27.832;2023-02-22T02:53:10;8.63;;;5.03;;
9716;SDS011;4897;43.570;27.832;2023-02-22T02:55:41;14.95;;;6.00;;
9716;SDS011;4897;43.570;27.832;2023-02-22T02:58:10;10.20;;;5.43;;
9716;SDS011;4897;43.570;27.832;2023-02-22T03:00:43;10.35;;;4.55;;
9716;SDS011;4897;43.570;27.832;2023-02-22T03:03:24;9.98;;;4.93;;
9716;SDS011;4897;43.570;27.832;2023-02-22T03:06:07;8.63;;;4.85;;
9716;SDS011;4897;43.570;27.832;2023-02-22T03:08:48;10.10;;;5.88;;
9716;SDS011;4897;43.570;27.832;2023-02-22T03:11:23;11.80;;;5.95;;
9716;SDS011;4897;43.570;27.832;2023-02-22T03:13:57;9.00;;;4.85;;
9716;SDS011;4897;43.570;27.832;2023-02-22T03:16:31;9.30;;;4.35;;
9716;SDS011;4897;43.570;27.832;2023-02-22T03:19:07;7.85;;;4.40;;
9716;SDS011;4897;43.570;27.832;2023-02-22T03:21:43;7.28;;;4.38;;
9716;SDS011;4897;43.570;27.832;2023-02-22T03:24:17;9.65;;;5.70;;
9716;SDS011;4897;43.570;27.832;2023-02-22T03:26:48;8.23;;;5.10;;
9716;SDS011;4897;43.570;27.832;2023-02-22T03:29:22;9.77;;;4.60;;
9716;SDS011;4897;43.570;27.832;2023-02-22T03:31:52;6.53;;;4.28;;
9716;SDS011;4897;43.570;27.832;2023-02-22T03:34:28;6.75;;;4.07;;
9716;SDS011;4897;43.570;27.832;2023-02-22T03:36:59;6.47;;;4.03;;
9716;SDS011;4897;43.570;27.832;2023-02-22T03:39:30;8.98;;;4.13;;
9716;SDS011;4897;43.570;27.832;2023-02-22T03:42:02;8.73;;;5.00;;
9716;SDS011;4897;43.570;27.832;2023-02-22T03:44:32;8.57;;;5.57;;
9716;SDS011;4897;43.570;27.832;2023-02-22T03:47:05;18.35;;;7.05;;
9716;SDS011;4897;43.570;27.832;2023-02-22T03:49:39;13.35;;;7.47;;
9716;SDS011;4897;43.570;27.832;2023-02-22T03:52:12;13.93;;;6.82;;
9716;SDS011;4897;43.570;27.832;2023-02-22T03:54:39;13.02;;;6.70;;
9716;SDS011;4897;43.570;27.832;2023-02-22T03:57:07;17.73;;;9.05;;
9716;SDS011;4897;43.570;27.832;2023-02-22T03:59:39;17.10;;;8.13;;
9716;SDS011;4897;43.570;27.832;2023-02-22T04:02:06;17.33;;;9.55;;
9716;SDS011;4897;43.570;27.832;2023-02-22T04:04:33;21.35;;;12.88;;
9716;SDS011;4897;43.570;27.832;2023-02-22T04:07:01;17.23;;;11.35;;
9716;SDS011;4897;43.570;27.832;2023-02-22T04:09:28;21.27;;;12.73;;
9716;SDS011;4897;43.570;27.832;2023-02-22T04:11:55;19.08;;;11.68;;
9716;SDS011;4897;43.570;27.832;2023-02-22T04:14:22;18.73;;;10.48;;
9716;SDS011;4897;43.570;27.832;2023-02-22T04:16:49;18.95;;;9.68;;
9716;SDS011;4897;43.570;27.832;2023-02-22T04:19:16;18.25;;;10.05;;
9716;SDS011;4897;43.570;27.832;2023-02-22T04:21:43;19.25;;;10.65;;
9716;SDS011;4897;43.570;27.832;2023-02-22T04:24:11;28.20;;;14.95;;
9716;SDS011;4897;43.570;27.832;2023-02-22T04:26:38;26.00;;;13.65;;
9716;SDS011;4897;43.570;27.832;2023-02-22T04:29:05;38.88;;;17.75;;
9716;SDS011;4897;43.570;27.832;2023-02-22T04:31:32;31.75;;;15.05;;
9716;SDS011;4897;43.570;27.832;2023-02-22T04:33:59;27.65;;;14.70;;
9716;SDS011;4897;43.570;27.832;2023-02-22T04:36:27;26.95;;;14.15;;
9716;SDS011;4897;43.570;27.832;2023-02-22T04:38:56;26.90;;;12.80;;
9716;SDS011;4897;43.570;27.832;2023-02-22T04:41:24;26.10;;;13.40;;
9716;SDS011;4897;43.570;27.832;2023-02-22T04:43:51;23.83;;;13.40;;
9716;SDS011;4897;43.570;27.832;2023-02-22T04:46:18;24.67;;;13.23;;
9716;SDS011;4897;43.570;27.832;2023-02-22T04:48:45;35.75;;;18.17;;
9716;SDS011;4897;43.570;27.832;2023-02-22T04:51:13;45.40;;;19.50;;
9716;SDS011;4897;43.570;27.832;2023-02-22T04:53:41;35.90;;;18.27;;
9716;SDS011;4897;43.570;27.832;2023-02-22T04:56:08;36.63;;;19.15;;
9716;SDS011;4897;43.570;27.832;2023-02-22T04:58:36;42.97;;;15.77;;
9716;SDS011;4897;43.570;27.832;2023-02-22T05:01:03;28.83;;;13.60;;
9716;SDS011;4897;43.570;27.832;2023-02-22T05:03:30;29.58;;;11.98;;
9716;SDS011;4897;43.570;27.832;2023-02-22T05:05:57;23.73;;;11.40;;
9716;SDS011;4897;43.570;27.832;2023-02-22T05:08:24;28.13;;;9.63;;
9716;SDS011;4897;43.570;27.832;2023-02-22T05:10:51;36.45;;;12.55;;
9716;SDS011;4897;43.570;27.832;2023-02-22T05:13:18;19.70;;;10.88;;
9716;SDS011;4897;43.570;27.832;2023-02-22T05:15:47;19.40;;;8.73;;
9716;SDS011;4897;43.570;27.832;2023-02-22T05:18:14;15.25;;;8.05;;
9716;SDS011;4897;43.570;27.832;2023-02-22T05:20:41;14.18;;;7.78;;
9716;SDS011;4897;43.570;27.832;2023-02-22T05:23:08;20.17;;;8.32;;
9716;SDS011;4897;43.570;27.832;2023-02-22T05:25:34;17.15;;;9.30;;
9716;SDS011;4897;43.570;27.832;2023-02-22T05:28:03;33.83;;;14.23;;
9716;SDS011;4897;43.570;27.832;2023-02-22T05:30:34;35.53;;;16.38;;
9716;SDS011;4897;43.570;27.832;2023-02-22T05:33:05;27.35;;;14.55;;
9716;SDS011;4897;43.570;27.832;2023-02-22T05:35:32;35.90;;;17.40;;
9716;SDS011;4897;43.570;27.832;2023-02-22T05:38:01;41.78;;;20.50;;
9716;SDS011;4897;43.570;27.832;2023-02-22T05:40:35;36.05;;;17.20;;
9716;SDS011;4897;43.570;27.832;2023-02-22T05:43:04;40.53;;;19.10;;
9716;SDS011;4897;43.570;27.832;2023-02-22T05:45:31;29.17;;;14.98;;
9716;SDS011;4897;43.570;27.832;2023-02-22T05:47:58;27.35;;;15.25;;
9716;SDS011;4897;43.570;27.832;2023-02-22T05:50:26;22.92;;;11.95;;
9716;SDS011;4897;43.570;27.832;2023-02-22T05:52:54;31.08;;;13.13;;
9716;SDS011;4897;43.570;27.832;2023-02-22T05:55:23;25.65;;;13.18;;
9716;SDS011;4897;43.570;27.832;2023-02-22T05:57:51;31.83;;;13.02;;
9716;SDS011;4897;43.570;27.832;2023-02-22T06:00:20;32.08;;;15.07;;
9716;SDS011;4897;43.570;27.832;2023-02-22T06:02:52;28.45;;;13.60;;
9716;SDS011;4897;43.570;27.832;2023-02-22T06:05:19;27.05;;;14.57;;
9716;SDS011;4897;43.570;27.832;2023-02-22T06:07:48;30.52;;;15.48;;
9716;SDS011;4897;43.570;27.832;2023-02-22T06:10:15;55.58;;;30.20;;
9716;SDS011;4897;43.570;27.832;2023-02-22T06:12:42;68.53;;;29.02;;
9716;SDS011;4897;43.570;27.832;2023-02-22T06:15:10;54.30;;;23.75;;
9716;SDS011;4897;43.570;27.832;2023-02-22T06:17:37;47.58;;;21.75;;
9716;SDS011;4897;43.570;27.832;2023-02-22T06:20:06;72.93;;;33.17;;
9716;SDS011;4897;43.570;27.832;2023-02-22T06:22:34;50.58;;;24.23;;
9716;SDS011;4897;43.570;27.832;2023-02-22T06:25:03;38.45;;;19.52;;
9716;SDS011;4897;43.570;27.832;2023-02-22T06:27:31;36.55;;;20.83;;
9716;SDS011;4897;43.570;27.832;2023-02-22T06:29:58;41.40;;;19.73;;
9716;SDS011;4897;43.570;27.832;2023-02-22T06:32:25;44.88;;;21.52;;
9716;SDS011;4897;43.570;27.832;2023-02-22T06:34:52;53.10;;;17.70;;
9716;SDS011;4897;43.570;27.832;2023-02-22T06:37:19;30.45;;;15.73;;
9716;SDS011;4897;43.570;27.832;2023-02-22T06:39:46;35.15;;;17.38;;
9716;SDS011;4897;43.570;27.832;2023-02-22T06:42:15;34.33;;;21.58;;
9716;SDS011;4897;43.570;27.832;2023-02-22T06:44:42;41.53;;;19.75;;
9716;SDS011;4897;43.570;27.832;2023-02-22T06:47:09;28.90;;;15.55;;
9716;SDS011;4897;43.570;27.832;2023-02-22T06:49:36;25.73;;;11.30;;
9716;SDS011;4897;43.570;27.832;2023-02-22T06:52:03;19.20;;;10.93;;
9716;SDS011;4897;43.570;27.832;2023-02-22T06:54:31;24.88;;;11.82;;
9716;SDS011;4897;43.570;27.832;2023-02-22T06:56:58;27.35;;;12.93;;
9716;SDS011;4897;43.570;27.832;2023-02-22T06:59:26;52.80;;;17.15;;
9716;SDS011;4897;43.570;27.832;2023-02-22T07:01:53;78.70;;;36.30;;
9716;SDS011;4897;43.570;27.832;2023-02-22T07:04:20;70.88;;;34.90;;
9716;SDS011;4897;43.570;27.832;2023-02-22T07:06:47;49.17;;;23.85;;
9716;SDS011;4897;43.570;27.832;2023-02-22T07:09:16;59.95;;;24.00;;
9716;SDS011;4897;43.570;27.832;2023-02-22T07:11:44;65.10;;;28.85;;
9716;SDS011;4897;43.570;27.832;2023-02-22T07:14:11;103.07;;;42.47;;
9716;SDS011;4897;43.570;27.832;2023-02-22T07:16:39;75.25;;;38.53;;
9716;SDS011;4897;43.570;27.832;2023-02-22T07:19:06;92.18;;;49.92;;
9716;SDS011;4897;43.570;27.832;2023-02-22T07:21:33;63.80;;;29.63;;
9716;SDS011;4897;43.570;27.832;2023-02-22T07:24:00;55.05;;;28.90;;
9716;SDS011;4897;43.570;27.832;2023-02-22T07:26:30;73.90;;;34.38;;
9716;SDS011;4897;43.570;27.832;2023-02-22T07:29:03;55.42;;;29.65;;
9716;SDS011;4897;43.570;27.832;2023-02-22T07:31:33;72.20;;;28.08;;
9716;SDS011;4897;43.570;27.832;2023-02-22T07:34:02;49.22;;;22.55;;
9716;SDS011;4897;43.570;27.832;2023-02-22T07:36:29;45.80;;;19.25;;
9716;SDS011;4897;43.570;27.832;2023-02-22T07:38:56;24.98;;;12.23;;
9716;SDS011;4897;43.570;27.832;2023-02-22T07:41:23;21.45;;;10.73;;
9716;SDS011;4897;43.570;27.832;2023-02-22T07:43:53;29.27;;;10.88;;
9716;SDS011;4897;43.570;27.832;2023-02-22T07:46:20;25.80;;;11.25;;
9716;SDS011;4897;43.570;27.832;2023-02-22T07:48:47;30.15;;;12.20;;
9716;SDS011;4897;43.570;27.832;2023-02-22T07:51:15;11.05;;;6.18;;
9716;SDS011;4897;43.570;27.832;2023-02-22T07:53:45;10.63;;;7.03;;
9716;SDS011;4897;43.570;27.832;2023-02-22T07:56:12;11.23;;;6.72;;
9716;SDS011;4897;43.570;27.832;2023-02-22T07:58:39;14.30;;;6.38;;
9716;SDS011;4897;43.570;27.832;2023-02-22T08:01:06;10.23;;;5.35;;
9716;SDS011;4897;43.570;27.832;2023-02-22T08:03:33;12.35;;;7.30;;
9716;SDS011;4897;43.570;27.832;2023-02-22T08:06:02;11.57;;;6.70;;
9716;SDS011;4897;43.570;27.832;2023-02-22T08:08:32;11.45;;;5.88;;
9716;SDS011;4897;43.570;27.832;2023-02-22T08:10:59;13.70;;;6.88;;
9716;SDS011;4897;43.570;27.832;2023-02-22T08:13:26;15.02;;;6.72;;
9716;SDS011;4897;43.570;27.832;2023-02-22T08:15:53;12.50;;;7.30;;
9716;SDS011;4897;43.570;27.832;2023-02-22T08:18:21;13.70;;;7.18;;
9716;SDS011;4897;43.570;27.832;2023-02-22T08:20:52;12.85;;;6.72;;
9716;SDS011;4897;43.570;27.832;2023-02-22T08:23:21;12.20;;;6.07;;
9716;SDS011;4897;43.570;27.832;2023-02-22T08:25:52;12.52;;;7.05;;
9716;SDS011;4897;43.570;27.832;2023-02-22T08:28:20;8.65;;;5.80;;
9716;SDS011;4897;43.570;27.832;2023-02-22T08:30:48;8.18;;;5.40;;
9716;SDS011;4897;43.570;27.832;2023-02-22T08:33:16;16.40;;;7.20;;
9716;SDS011;4897;43.570;27.832;2023-02-22T08:35:44;50.75;;;30.55;;
9716;SDS011;4897;43.570;27.832;2023-02-22T08:38:16;14.32;;;5.40;;
9716;SDS011;4897;43.570;27.832;2023-02-22T08:40:46;19.23;;;7.25;;
9716;SDS011;4897;43.570;27.832;2023-02-22T08:43:16;14.73;;;7.00;;
9716;SDS011;4897;43.570;27.832;2023-02-22T08:45:43;14.95;;;6.88;;
9716;SDS011;4897;43.570;27.832;2023-02-22T08:48:11;12.90;;;5.20;;
9716;SDS011;4897;43.570;27.832;2023-02-22T08:50:39;15.75;;;6.30;;
9716;SDS011;4897;43.570;27.832;2023-02-22T08:53:08;11.20;;;5.05;;
9716;SDS011;4897;43.570;27.832;2023-02-22T08:55:38;7.72;;;5.35;;
9716;SDS011;4897;43.570;27.832;2023-02-22T08:58:05;12.43;;;6.10;;
9716;SDS011;4897;43.570;27.832;2023-02-22T09:00:36;22.35;;;6.45;;
9716;SDS011;4897;43.570;27.832;2023-02-22T09:03:05;15.02;;;6.25;;
9716;SDS011;4897;43.570;27.832;2023-02-22T09:05:33;33.70;;;6.95;;
9716;SDS011;4897;43.570;27.832;2023-02-22T09:08:00;10.18;;;5.03;;
9716;SDS011;4897;43.570;27.832;2023-02-22T09:10:29;8.88;;;5.45;;
9716;SDS011;4897;43.570;27.832;2023-02-22T09:12:57;15.38;;;6.18;;
9716;SDS011;4897;43.570;27.832;2023-02-22T09:15:26;16.15;;;6.47;;
9716;SDS011;4897;43.570;27.832;2023-02-22T09:17:54;22.65;;;6.72;;
9716;SDS011;4897;43.570;27.832;2023-02-22T09:20:22;8.90;;;5.85;;
9716;SDS011;4897;43.570;27.832;2023-02-22T09:22:51;10.77;;;5.75;;
9716;SDS011;4897;43.570;27.832;2023-02-22T09:25:19;15.07;;;6.30;;
9716;SDS011;4897;43.570;27.832;2023-02-22T09:27:47;8.05;;;5.75;;
9716;SDS011;4897;43.570;27.832;2023-02-22T09:30:16;8.15;;;5.78;;
9716;SDS011;4897;43.570;27.832;2023-02-22T09:32:48;9.02;;;5.53;;
9716;SDS011;4897;43.570;27.832;2023-02-22T09:35:17;10.75;;;6.05;;
9716;SDS011;4897;43.570;27.832;2023-02-22T09:37:45;11.38;;;6.20;;
9716;SDS011;4897;43.570;27.832;2023-02-22T09:40:18;8.20;;;5.88;;
9716;SDS011;4897;43.570;27.832;2023-02-22T09:42:52;10.18;;;6.10;;
9716;SDS011;4897;43.570;27.832;2023-02-22T09:45:37;7.68;;;5.93;;
9716;SDS011;4897;43.570;27.832;2023-02-22T09:48:15;13.50;;;7.03;;
9716;SDS011;4897;43.570;27.832;2023-02-22T09:50:44;9.35;;;6.78;;
9716;SDS011;4897;43.570;27.832;2023-02-22T09:53:17;10.55;;;7.13;;
9716;SDS011;4897;43.570;27.832;2023-02-22T09:55:54;9.48;;;6.28;;
9716;SDS011;4897;43.570;27.832;2023-02-22T09:58:25;9.13;;;6.18;;
9716;SDS011;4897;43.570;27.832;2023-02-22T10:01:01;17.05;;;7.32;;
9716;SDS011;4897;43.570;27.832;2023-02-22T10:03:41;11.55;;;6.80;;
9716;SDS011;4897;43.570;27.832;2023-02-22T10:06:18;9.02;;;6.68;;
9716;SDS011;4897;43.570;27.832;2023-02-22T10:08:46;13.65;;;7.95;;
9716;SDS011;4897;43.570;27.832;2023-02-22T10:11:21;12.35;;;6.43;;
9716;SDS011;4897;43.570;27.832;2023-02-22T10:14:00;79.13;;;19.83;;
9716;SDS011;4897;43.570;27.832;2023-02-22T10:16:45;30.33;;;8.98;;
9716;SDS011;4897;43.570;27.832;2023-02-22T10:19:24;12.50;;;7.25;;
9716;SDS011;4897;43.570;27.832;2023-02-22T10:22:05;16.00;;;7.13;;
9716;SDS011;4897;43.570;27.832;2023-02-22T10:24:43;10.73;;;6.60;;
9716;SDS011;4897;43.570;27.832;2023-02-22T10:27:20;21.58;;;7.25;;
9716;SDS011;4897;43.570;27.832;2023-02-22T10:29:53;13.98;;;8.23;;
9716;SDS011;4897;43.570;27.832;2023-02-22T10:32:27;10.02;;;7.18;;
9716;SDS011;4897;43.570;27.832;2023-02-22T10:34:57;10.70;;;5.70;;
9716;SDS011;4897;43.570;27.832;2023-02-22T10:37:31;13.45;;;6.70;;
9716;SDS011;4897;43.570;27.832;2023-02-22T10:40:00;8.95;;;6.60;;
9716;SDS011;4897;43.570;27.832;2023-02-22T10:42:37;9.30;;;6.50;;
9716;SDS011;4897;43.570;27.832;2023-02-22T10:45:05;11.05;;;6.32;;
9716;SDS011;4897;43.570;27.832;2023-02-22T10:47:44;8.15;;;6.03;;
9716;SDS011;4897;43.570;27.832;2023-02-22T10:50:12;11.85;;;6.25;;
9716;SDS011;4897;43.570;27.832;2023-02-22T10:52:42;12.55;;;6.85;;
9716;SDS011;4897;43.570;27.832;2023-02-22T10:55:11;10.05;;;6.32;;
9716;SDS011;4897;43.570;27.832;2023-02-22T10:57:40;8.02;;;6.20;;
9716;SDS011;4897;43.570;27.832;2023-02-22T11:00:13;12.23;;;5.72;;
9716;SDS011;4897;43.570;27.832;2023-02-22T11:02:51;7.63;;;6.05;;
9716;SDS011;4897;43.570;27.832;2023-02-22T11:05:27;7.70;;;5.80;;
9716;SDS011;4897;43.570;27.832;2023-02-22T11:10:51;13.40;;;10.18;;
9716;SDS011;4897;43.570;27.832;2023-02-22T11:13:23;8.85;;;6.22;;
9716;SDS011;4897;43.570;27.832;2023-02-22T11:15:52;7.32;;;5.75;;
9716;SDS011;4897;43.570;27.832;2023-02-22T11:18:21;9.63;;;6.72;;
9716;SDS011;4897;43.570;27.832;2023-02-22T11:20:58;10.27;;;6.47;;
9716;SDS011;4897;43.570;27.832;2023-02-22T11:23:27;7.60;;;6.43;;
9716;SDS011;4897;43.570;27.832;2023-02-22T11:26:02;13.13;;;8.70;;
9716;SDS011;4897;43.570;27.832;2023-02-22T11:28:33;15.63;;;7.93;;
9716;SDS011;4897;43.570;27.832;2023-02-22T11:31:08;20.23;;;9.13;;
9716;SDS011;4897;43.570;27.832;2023-02-22T11:33:41;11.30;;;7.10;;
9716;SDS011;4897;43.570;27.832;2023-02-22T11:36:13;12.90;;;7.57;;
9716;SDS011;4897;43.570;27.832;2023-02-22T11:38:57;16.23;;;10.50;;
9716;SDS011;4897;43.570;27.832;2023-02-22T11:41:30;10.80;;;7.70;;
9716;SDS011;4897;43.570;27.832;2023-02-22T11:44:11;11.18;;;8.38;;
9716;SDS011;4897;43.570;27.832;2023-02-22T11:46:46;15.05;;;8.07;;
9716;SDS011;4897;43.570;27.832;2023-02-22T11:49:14;20.95;;;8.50;;
9716;SDS011;4897;43.570;27.832;2023-02-22T11:51:55;14.45;;;8.98;;
9716;SDS011;4897;43.570;27.832;2023-02-22T11:54:41;17.40;;;7.75;;
9716;SDS011;4897;43.570;27.832;2023-02-22T11:57:20;13.48;;;7.18;;
9716;SDS011;4897;43.570;27.832;2023-02-22T12:00:11;9.30;;;6.45;;
9716;SDS011;4897;43.570;27.832;2023-02-22T12:03:01;11.40;;;5.45;;
9716;SDS011;4897;43.570;27.832;2023-02-22T12:05:57;6.88;;;4.05;;
9716;SDS011;4897;43.570;27.832;2023-02-22T12:08:40;10.98;;;5.20;;
9716;SDS011;4897;43.570;27.832;2023-02-22T12:11:19;6.28;;;3.45;;
9716;SDS011;4897;43.570;27.832;2023-02-22T12:14:03;6.80;;;3.70;;
9716;SDS011;4897;43.570;27.832;2023-02-22T12:16:41;6.68;;;3.25;;
9716;SDS011;4897;43.570;27.832;2023-02-22T12:19:24;7.40;;;4.22;;
9716;SDS011;4897;43.570;27.832;2023-02-22T12:21:57;11.02;;;4.95;;
9716;SDS011;4897;43.570;27.832;2023-02-22T12:24:29;6.95;;;4.47;;
9716;SDS011;4897;43.570;27.832;2023-02-22T12:27:04;11.00;;;3.88;;
9716;SDS011;4897;43.570;27.832;2023-02-22T12:29:35;6.65;;;2.83;;
9716;SDS011;4897;43.570;27.832;2023-02-22T12:32:09;6.95;;;4.00;;
9716;SDS011;4897;43.570;27.832;2023-02-22T12:34:41;13.93;;;5.10;;
9716;SDS011;4897;43.570;27.832;2023-02-22T12:37:13;5.78;;;3.08;;
9716;SDS011;4897;43.570;27.832;2023-02-22T12:39:46;4.53;;;2.70;;
9716;SDS011;4897;43.570;27.832;2023-02-22T12:42:23;15.35;;;3.13;;
9716;SDS011;4897;43.570;27.832;2023-02-22T12:44:57;9.85;;;3.00;;
9716;SDS011;4897;43.570;27.832;2023-02-22T12:47:30;5.60;;;3.13;;
9716;SDS011;4897;43.570;27.832;2023-02-22T12:50:04;8.18;;;2.72;;
9716;SDS011;4897;43.570;27.832;2023-02-22T12:52:40;17.35;;;2.90;;
9716;SDS011;4897;43.570;27.832;2023-02-22T12:55:13;10.05;;;2.95;;
9716;SDS011;4897;43.570;27.832;2023-02-22T12:57:48;11.55;;;2.10;;
9716;SDS011;4897;43.570;27.832;2023-02-22T13:00:21;6.20;;;2.72;;
9716;SDS011;4897;43.570;27.832;2023-02-22T13:02:57;6.18;;;2.53;;
9716;SDS011;4897;43.570;27.832;2023-02-22T13:05:27;7.68;;;3.10;;
9716;SDS011;4897;43.570;27.832;2023-02-22T13:08:10;5.60;;;2.28;;
9716;SDS011;4897;43.570;27.832;2023-02-22T13:10:56;7.75;;;2.92;;
9716;SDS011;4897;43.570;27.832;2023-02-22T13:13:33;4.32;;;2.20;;
9716;SDS011;4897;43.570;27.832;2023-02-22T13:16:13;10.15;;;2.53;;
9716;SDS011;4897;43.570;27.832;2023-02-22T13:18:51;10.38;;;4.80;;
9716;SDS011;4897;43.570;27.832;2023-02-22T13:21:27;8.38;;;3.50;;
9716;SDS011;4897;43.570;27.832;2023-02-22T13:24:02;7.07;;;3.38;;
9716;SDS011;4897;43.570;27.832;2023-02-22T13:26:37;7.15;;;3.90;;
9716;SDS011;4897;43.570;27.832;2023-02-22T13:29:14;6.35;;;3.13;;
9716;SDS011;4897;43.570;27.832;2023-02-22T13:31:52;9.60;;;4.07;;
9716;SDS011;4897;43.570;27.832;2023-02-22T13:46:39;8.52;;;3.00;;
9716;SDS011;4897;43.570;27.832;2023-02-22T13:49:44;6.25;;;2.40;;
9716;SDS011;4897;43.570;27.832;2023-02-22T13:52:18;6.30;;;2.17;;
9716;SDS011;4897;43.570;27.832;2023-02-22T13:54:48;3.65;;;1.75;;
9716;SDS011;4897;43.570;27.832;2023-02-22T13:57:20;9.65;;;2.20;;
9716;SDS011;4897;43.570;27.832;2023-02-22T14:03:03;6.05;;;2.85;;
9716;SDS011;4897;43.570;27.832;2023-02-22T14:05:45;5.13;;;2.38;;
9716;SDS011;4897;43.570;27.832;2023-02-22T14:14:18;4.00;;;2.42;;
9716;SDS011;4897;43.570;27.832;2023-02-22T14:20:04;10.13;;;2.53;;
9716;SDS011;4897;43.570;27.832;2023-02-22T14:22:46;7.32;;;2.58;;
9716;SDS011;4897;43.570;27.832;2023-02-22T14:25:28;5.32;;;3.10;;
9716;SDS011;4897;43.570;27.832;2023-02-22T14:28:02;10.75;;;3.33;;
9716;SDS011;4897;43.570;27.832;2023-02-22T14:30:30;7.85;;;2.70;;
9716;SDS011;4897;43.570;27.832;2023-02-22T14:33:00;8.80;;;2.85;;
9716;SDS011;4897;43.570;27.832;2023-02-22T14:35:30;5.50;;;2.75;;
9716;SDS011;4897;43.570;27.832;2023-02-22T14:38:04;6.82;;;2.53;;
9716;SDS011;4897;43.570;27.832;2023-02-22T14:40:38;10.05;;;3.40;;
9716;SDS011;4897;43.570;27.832;2023-02-22T14:43:09;8.98;;;2.88;;
9716;SDS011;4897;43.570;27.832;2023-02-22T14:45:42;4.63;;;2.70;;
9716;SDS011;4897;43.570;27.832;2023-02-22T14:48:17;8.93;;;3.08;;
9716;SDS011;4897;43.570;27.832;2023-02-22T14:50:53;6.97;;;2.28;;
9716;SDS011;4897;43.570;27.832;2023-02-22T14:53:26;7.05;;;3.30;;
9716;SDS011;4897;43.570;27.832;2023-02-22T14:56:04;5.95;;;3.05;;
9716;SDS011;4897;43.570;27.832;2023-02-22T14:58:36;6.47;;;2.70;;
9716;SDS011;4897;43.570;27.832;2023-02-22T15:01:19;6.22;;;2.92;;
9716;SDS011;4897;43.570;27.832;2023-02-22T15:03:48;4.13;;;2.42;;
9716;SDS011;4897;43.570;27.832;2023-02-22T15:06:18;7.43;;;3.30;;
9716;SDS011;4897;43.570;27.832;2023-02-22T15:08:46;7.25;;;2.60;;
9716;SDS011;4897;43.570;27.832;2023-02-22T15:11:19;5.13;;;2.47;;
9716;SDS011;4897;43.570;27.832;2023-02-22T15:13:50;5.88;;;2.33;;
9716;SDS011;4897;43.570;27.832;2023-02-22T15:16:22;6.53;;;2.30;;
9716;SDS011;4897;43.570;27.832;2023-02-22T15:18:52;23.42;;;13.48;;
9716;SDS011;4897;43.570;27.832;2023-02-22T15:21:23;14.73;;;4.50;;
9716;SDS011;4897;43.570;27.832;2023-02-22T15:23:52;14.43;;;4.75;;
9716;SDS011;4897;43.570;27.832;2023-02-22T15:26:22;13.85;;;4.45;;
9716;SDS011;4897;43.570;27.832;2023-02-22T15:28:52;6.63;;;3.30;;
9716;SDS011;4897;43.570;27.832;2023-02-22T15:31:25;10.85;;;4.00;;
9716;SDS011;4897;43.570;27.832;2023-02-22T15:33:55;8.32;;;3.97;;
9716;SDS011;4897;43.570;27.832;2023-02-22T15:36:25;9.88;;;3.78;;
9716;SDS011;4897;43.570;27.832;2023-02-22T15:38:55;12.75;;;5.13;;
9716;SDS011;4897;43.570;27.832;2023-02-22T15:41:24;10.05;;;4.85;;
9716;SDS011;4897;43.570;27.832;2023-02-22T15:43:56;10.52;;;4.03;;
9716;SDS011;4897;43.570;27.832;2023-02-22T15:46:24;20.00;;;7.57;;
9716;SDS011;4897;43.570;27.832;2023-02-22T15:49:04;11.65;;;5.00;;
9716;SDS011;4897;43.570;27.832;2023-02-22T15:51:34;14.32;;;8.48;;